Time;durP1;ratioP1;P1;durP2;ratioP2;P2;SDS_P1;SDS_P2;PMS_P1;PMS_P2;Temp;Humidity;BMP_temperature;BMP_pressure;BME280_temperature;BME280_humidity;BME280_pressure;Samples;Min_cycle;Max_cycle;Signal;HPM_P1;HPM_P2
2022/12/30 00:02:13;;;;;;;34.65;31.50;;;;;;;;;;10115062;28;20054;-67
2022/12/30 00:07:10;;;;;;;31.55;28.98;;;;;;;;;;10121035;28;20051;-67
2022/12/30 00:33:18;;;;;;;27.10;24.85;;;;;;;;;;10120472;28;20125;-66
2022/12/30 00:38:15;;;;;;;26.85;24.45;;;;;;;;;;10141759;28;20420;-66
2022/12/30 00:43:11;;;;;;;27.25;24.90;;;;;;;;;;10114864;28;20122;-66
2022/12/30 00:58:37;;;;;;;28.02;25.80;;;;;;;;;;10118735;28;20130;-66
2022/12/30 01:03:33;;;;;;;25.38;22.77;;;;;;;;;;10117812;28;20084;-66
2022/12/30 01:08:31;;;;;;;31.73;29.05;;;;;;;;;;10112567;28;20417;-67
2022/12/30 01:13:27;;;;;;;38.17;34.53;;;;;;;;;;10115609;28;20046;-66
2022/12/30 01:18:24;;;;;;;40.63;37.30;;;;;;;;;;10152508;28;20152;-66
2022/12/30 01:23:20;;;;;;;39.65;36.92;;;;;;;;;;10135740;28;20133;-66
2022/12/30 01:28:16;;;;;;;46.80;42.60;;;;;;;;;;10151993;28;20054;-66
2022/12/30 01:33:12;;;;;;;46.25;42.00;;;;;;;;;;10131350;28;20043;-67
2022/12/30 01:38:09;;;;;;;47.35;43.47;;;;;;;;;;10159740;28;20043;-67
2022/12/30 01:43:08;;;;;;;49.15;45.38;;;;;;;;;;10132616;28;20528;-66
2022/12/30 01:48:09;;;;;;;47.53;43.92;;;;;;;;;;10155860;28;20962;-66
2022/12/30 01:53:08;;;;;;;45.65;42.53;;;;;;;;;;10120175;28;20071;-66
2022/12/30 01:58:08;;;;;;;44.92;41.55;;;;;;;;;;10139595;28;20074;-67
2022/12/30 02:03:05;;;;;;;43.83;40.33;;;;;;;;;;10119694;28;20082;-66
2022/12/30 02:08:12;;;;;;;40.53;37.50;;;;;;;;;;10136372;28;20050;-66
2022/12/30 02:13:13;;;;;;;44.38;40.85;;;;;;;;;;10119143;28;20529;-66
2022/12/30 02:18:12;;;;;;;44.03;39.95;;;;;;;;;;10128137;28;20070;-66
2022/12/30 02:23:20;;;;;;;44.53;40.75;;;;;;;;;;10119133;28;20421;-66
2022/12/30 02:28:36;;;;;;;39.75;36.80;;;;;;;;;;10123947;28;20512;-66
2022/12/30 02:33:38;;;;;;;37.38;33.83;;;;;;;;;;10121996;28;20074;-66
2022/12/30 02:38:35;;;;;;;39.50;36.03;;;;;;;;;;10117626;28;20042;-66
2022/12/30 02:48:49;;;;;;;43.28;38.92;;;;;;;;;;10156430;28;20042;-66
2022/12/30 02:53:45;;;;;;;39.47;36.45;;;;;;;;;;10140000;28;20055;-66
2022/12/30 02:58:48;;;;;;;38.85;34.88;;;;;;;;;;10147284;28;20752;-66
2022/12/30 03:03:59;;;;;;;36.38;33.00;;;;;;;;;;10122684;28;20085;-66
2022/12/30 03:09:07;;;;;;;37.28;34.17;;;;;;;;;;10145251;28;20075;-66
2022/12/30 03:14:03;;;;;;;35.53;32.80;;;;;;;;;;10124675;28;21027;-66
2022/12/30 03:19:02;;;;;;;34.33;30.50;;;;;;;;;;10134158;28;20125;-66
2022/12/30 03:29:17;;;;;;;36.53;29.60;;;;;;;;;;10124630;28;20085;-66
2022/12/30 03:34:14;;;;;;;30.92;27.33;;;;;;;;;;10125407;28;20137;-66
2022/12/30 03:39:23;;;;;;;32.13;27.52;;;;;;;;;;10086854;28;20077;-66
2022/12/30 03:44:20;;;;;;;30.98;27.55;;;;;;;;;;10094285;28;20098;-66
2022/12/30 03:49:18;;;;;;;28.52;24.58;;;;;;;;;;10114989;28;20505;-66
2022/12/30 03:54:14;;;;;;;26.60;23.95;;;;;;;;;;10123334;28;20061;-66
2022/12/30 03:59:10;;;;;;;28.90;24.90;;;;;;;;;;10153943;28;20075;-66
2022/12/30 04:04:06;;;;;;;31.52;25.92;;;;;;;;;;10139814;28;20046;-66
2022/12/30 04:09:03;;;;;;;31.63;26.90;;;;;;;;;;10152460;28;20086;-66
2022/12/30 04:13:59;;;;;;;27.45;24.42;;;;;;;;;;10122343;28;20082;-66
2022/12/30 04:18:55;;;;;;;35.33;25.00;;;;;;;;;;10117501;28;20043;-66
2022/12/30 04:23:51;;;;;;;30.23;25.02;;;;;;;;;;10088021;28;20078;-66
2022/12/30 04:28:47;;;;;;;31.70;24.63;;;;;;;;;;10123185;28;20053;-66
2022/12/30 04:33:47;;;;;;;26.92;23.50;;;;;;;;;;10119553;28;20110;-66
2022/12/30 04:38:43;;;;;;;32.20;22.70;;;;;;;;;;10117626;28;20267;-66
2022/12/30 04:43:39;;;;;;;26.52;21.08;;;;;;;;;;10118849;28;20134;-66
2022/12/30 04:48:36;;;;;;;30.40;22.83;;;;;;;;;;10116836;28;20066;-66
2022/12/30 04:53:32;;;;;;;27.52;21.88;;;;;;;;;;10113622;28;20125;-66
2022/12/30 04:58:28;;;;;;;34.33;20.67;;;;;;;;;;10112818;28;20071;-66
2022/12/30 05:03:25;;;;;;;24.15;20.20;;;;;;;;;;10116024;28;20788;-66
2022/12/30 05:08:21;;;;;;;28.50;19.83;;;;;;;;;;10156402;28;20493;-66
2022/12/30 05:13:17;;;;;;;23.65;19.98;;;;;;;;;;10143264;28;20517;-66
2022/12/30 05:18:14;;;;;;;25.25;20.45;;;;;;;;;;10145472;28;20097;-66
2022/12/30 05:26:13;;;;;;;23.63;21.10;;;;;;;;;;10121403;28;20049;-66
2022/12/30 05:28:26;;;;;;;24.95;20.90;;;;;;;;;;10152935;28;20154;-66
2022/12/30 05:33:22;;;;;;;24.23;20.15;;;;;;;;;;10112919;28;20047;-66
2022/12/30 05:38:18;;;;;;;23.38;20.85;;;;;;;;;;10119074;28;20049;-66
2022/12/30 05:43:15;;;;;;;26.23;23.48;;;;;;;;;;10121322;28;20058;-66
2022/12/30 05:48:11;;;;;;;32.05;23.00;;;;;;;;;;10119986;28;20587;-66
2022/12/30 05:53:07;;;;;;;28.70;22.05;;;;;;;;;;10119884;28;20046;-66
2022/12/30 05:58:04;;;;;;;26.55;24.05;;;;;;;;;;10158712;28;20137;-66
2022/12/30 06:03:00;;;;;;;25.27;22.63;;;;;;;;;;10154841;28;20047;-66
2022/12/30 06:07:56;;;;;;;24.35;21.63;;;;;;;;;;10158073;28;20086;-66
2022/12/30 06:12:52;;;;;;;23.17;19.60;;;;;;;;;;10139079;28;20047;-66
2022/12/30 06:17:49;;;;;;;27.20;21.23;;;;;;;;;;10156298;28;20133;-66
2022/12/30 06:22:45;;;;;;;26.15;23.17;;;;;;;;;;10134017;28;20318;-66
2022/12/30 06:27:41;;;;;;;25.08;22.60;;;;;;;;;;10155634;28;20421;-66
2022/12/30 06:32:37;;;;;;;25.20;22.55;;;;;;;;;;10131018;28;20057;-66
2022/12/30 06:37:34;;;;;;;25.50;22.77;;;;;;;;;;10148583;28;20061;-66
2022/12/30 06:42:30;;;;;;;26.65;22.45;;;;;;;;;;10117894;28;20057;-66
2022/12/30 06:47:26;;;;;;;28.85;25.98;;;;;;;;;;10131429;28;20090;-66
2022/12/30 06:52:22;;;;;;;27.08;24.40;;;;;;;;;;10117690;28;20053;-66
2022/12/30 06:57:19;;;;;;;30.70;26.83;;;;;;;;;;10124280;28;20126;-66
2022/12/30 07:02:15;;;;;;;30.55;27.58;;;;;;;;;;10117103;28;20073;-65
2022/12/30 07:07:11;;;;;;;31.35;28.38;;;;;;;;;;10117383;28;20046;-66
2022/12/30 07:12:08;;;;;;;33.25;29.92;;;;;;;;;;10117464;28;20078;-65
2022/12/30 07:17:04;;;;;;;33.28;30.60;;;;;;;;;;10135472;28;20066;-66
2022/12/30 07:22:00;;;;;;;37.63;31.30;;;;;;;;;;10115676;28;20046;-66
2022/12/30 07:26:56;;;;;;;36.63;32.38;;;;;;;;;;10147838;28;20092;-66
2022/12/30 07:31:53;;;;;;;34.83;31.90;;;;;;;;;;10134618;28;20051;-65
2022/12/30 07:36:49;;;;;;;38.53;34.97;;;;;;;;;;10146245;28;20524;-66
2022/12/30 07:41:45;;;;;;;38.95;35.42;;;;;;;;;;10119099;28;20565;-66
2022/12/30 07:46:41;;;;;;;38.90;35.45;;;;;;;;;;10140481;28;20051;-66
2022/12/30 07:51:39;;;;;;;39.60;35.90;;;;;;;;;;10115688;28;20042;-66
2022/12/30 07:56:35;;;;;;;39.15;35.42;;;;;;;;;;10140208;28;20529;-66
2022/12/30 08:01:31;;;;;;;39.65;36.00;;;;;;;;;;10115240;28;20051;-66
2022/12/30 08:06:28;;;;;;;39.60;35.88;;;;;;;;;;10131209;28;20497;-66
2022/12/30 08:11:24;;;;;;;40.83;37.25;;;;;;;;;;10115168;28;20137;-66
2022/12/30 08:16:20;;;;;;;41.97;38.00;;;;;;;;;;10117315;28;20145;-66
2022/12/30 08:21:17;;;;;;;39.88;36.20;;;;;;;;;;10114073;28;20058;-66
2022/12/30 08:26:17;;;;;;;41.50;38.10;;;;;;;;;;10138789;28;20050;-66
2022/12/30 08:31:15;;;;;;;41.63;38.17;;;;;;;;;;10150132;28;20538;-66
2022/12/30 08:36:14;;;;;;;40.13;36.83;;;;;;;;;;10139230;28;20050;-66
2022/12/30 08:41:13;;;;;;;42.00;38.22;;;;;;;;;;10143594;28;20043;-65
2022/12/30 08:46:10;;;;;;;41.85;38.17;;;;;;;;;;10137338;28;20126;-65
2022/12/30 08:51:07;;;;;;;40.13;36.55;;;;;;;;;;10133404;28;20046;-65
2022/12/30 08:56:20;;;;;;;41.10;37.35;;;;;;;;;;10136547;28;20055;-66
2022/12/30 09:01:20;;;;;;;40.38;36.53;;;;;;;;;;10115814;28;20130;-65
2022/12/30 09:06:18;;;;;;;38.10;34.67;;;;;;;;;;10130749;28;20051;-66
2022/12/30 09:11:17;;;;;;;37.20;33.85;;;;;;;;;;10113621;28;20054;-66
2022/12/30 09:16:14;;;;;;;33.08;30.33;;;;;;;;;;10126921;28;20428;-66
2022/12/30 09:21:11;;;;;;;31.27;28.10;;;;;;;;;;10113748;28;20057;-65
2022/12/30 09:26:08;;;;;;;31.10;28.25;;;;;;;;;;10119817;28;20150;-66
2022/12/30 09:31:05;;;;;;;29.27;26.25;;;;;;;;;;10113277;28;20079;-66
2022/12/30 09:36:01;;;;;;;27.63;24.80;;;;;;;;;;10135996;28;20082;-66
2022/12/30 09:41:05;;;;;;;25.75;23.52;;;;;;;;;;10152668;28;20054;-66
2022/12/30 09:46:08;;;;;;;26.75;23.88;;;;;;;;;;10137497;28;20051;-66
2022/12/30 09:51:07;;;;;;;27.17;24.50;;;;;;;;;;10148769;28;20065;-66
2022/12/30 09:56:09;;;;;;;24.90;22.60;;;;;;;;;;10142469;28;20082;-66
2022/12/30 10:01:06;;;;;;;20.27;18.50;;;;;;;;;;10123560;28;20074;-66
2022/12/30 10:06:11;;;;;;;24.10;19.40;;;;;;;;;;10122182;28;20126;-66
2022/12/30 10:11:10;;;;;;;20.85;17.88;;;;;;;;;;10118466;28;20074;-66
2022/12/30 10:16:33;;;;;;;21.25;16.08;;;;;;;;;;10141341;28;20058;-66
2022/12/30 10:21:39;;;;;;;18.27;16.52;;;;;;;;;;10119082;28;20412;-66
2022/12/30 10:26:40;;;;;;;18.63;15.93;;;;;;;;;;10127376;28;20046;-66
2022/12/30 10:31:37;;;;;;;17.07;15.30;;;;;;;;;;10118183;28;20121;-66
2022/12/30 10:36:37;;;;;;;18.27;14.90;;;;;;;;;;10145453;28;20050;-66
2022/12/30 10:41:58;;;;;;;18.45;14.60;;;;;;;;;;10151990;28;20068;-65
2022/12/30 10:47:14;;;;;;;18.63;13.57;;;;;;;;;;10148564;28;20077;-65
2022/12/30 10:52:11;;;;;;;16.55;12.75;;;;;;;;;;10129602;28;20051;-65
2022/12/30 10:57:13;;;;;;;20.10;13.23;;;;;;;;;;10149951;28;20050;-65
2022/12/30 11:02:21;;;;;;;15.18;12.98;;;;;;;;;;10139193;28;20109;-66
2022/12/30 11:07:17;;;;;;;23.02;12.55;;;;;;;;;;10133739;28;20441;-66
2022/12/30 11:17:41;;;;;;;13.40;12.00;;;;;;;;;;10117417;28;20050;-65
2022/12/30 11:22:44;;;;;;;15.15;11.48;;;;;;;;;;10116461;28;20046;-66
2022/12/30 11:27:42;;;;;;;12.70;10.55;;;;;;;;;;10128667;28;20051;-66
2022/12/30 11:32:44;;;;;;;15.80;11.52;;;;;;;;;;10116258;28;20051;-66
2022/12/30 11:37:40;;;;;;;16.35;12.75;;;;;;;;;;10127350;28;20054;-66
2022/12/30 11:42:36;;;;;;;19.02;12.43;;;;;;;;;;10115431;28;20073;-65
2022/12/30 11:47:33;;;;;;;12.88;10.60;;;;;;;;;;10124353;28;20054;-65
2022/12/30 11:52:29;;;;;;;17.77;11.35;;;;;;;;;;10113666;28;20126;-66
2022/12/30 11:57:26;;;;;;;15.35;11.23;;;;;;;;;;10114596;28;20054;-65
2022/12/30 12:02:33;;;;;;;16.00;11.80;;;;;;;;;;10114638;28;20042;-65
2022/12/30 12:07:35;;;;;;;13.18;10.75;;;;;;;;;;10149776;28;20057;-66
2022/12/30 12:12:42;;;;;;;12.45;10.90;;;;;;;;;;10128929;28;20532;-65
2022/12/30 12:18:16;;;;;;;21.83;11.85;;;;;;;;;;10131510;28;20069;-65
2022/12/30 12:23:19;;;;;;;14.90;11.15;;;;;;;;;;10031735;29;20044;-66
2022/12/30 12:28:15;;;;;;;14.98;10.38;;;;;;;;;;10094778;28;20074;-65
2022/12/30 12:33:19;;;;;;;16.23;10.63;;;;;;;;;;10115172;28;20074;-65
2022/12/30 12:38:37;;;;;;;14.65;11.20;;;;;;;;;;10113599;28;20697;-66
2022/12/30 12:43:43;;;;;;;15.05;10.13;;;;;;;;;;10114387;28;20477;-66
2022/12/30 12:48:45;;;;;;;11.95;9.45;;;;;;;;;;10117323;28;20134;-65
2022/12/30 12:53:47;;;;;;;12.75;9.70;;;;;;;;;;10118893;28;20077;-65
2022/12/30 12:59:02;;;;;;;12.68;9.85;;;;;;;;;;10116028;28;20051;-66
2022/12/30 13:04:01;;;;;;;10.52;8.25;;;;;;;;;;10117051;28;20489;-65
2022/12/30 13:09:07;;;;;;;11.32;8.20;;;;;;;;;;10112888;28;20417;-65
2022/12/30 13:14:09;;;;;;;13.25;9.07;;;;;;;;;;10120609;28;20509;-65
2022/12/30 13:19:10;;;;;;;13.68;9.43;;;;;;;;;;10152594;28;20085;-65
2022/12/30 13:24:07;;;;;;;11.30;9.05;;;;;;;;;;10136542;28;20081;-65
2022/12/30 13:29:04;;;;;;;14.10;9.98;;;;;;;;;;10155245;28;20046;-66
2022/12/30 13:34:13;;;;;;;13.75;9.98;;;;;;;;;;10137343;28;20046;-65
2022/12/30 13:39:14;;;;;;;14.13;10.82;;;;;;;;;;10159515;28;20447;-66
2022/12/30 13:44:18;;;;;;;12.00;10.68;;;;;;;;;;10135991;28;20073;-66
2022/12/30 13:49:14;;;;;;;11.73;10.55;;;;;;;;;;10159586;28;20042;-65
2022/12/30 13:54:16;;;;;;;12.35;10.05;;;;;;;;;;10121328;28;20058;-66
2022/12/30 13:59:26;;;;;;;13.70;11.35;;;;;;;;;;10118773;28;20043;-66
2022/12/30 14:04:32;;;;;;;15.18;10.60;;;;;;;;;;10129944;28;20508;-66
2022/12/30 14:09:30;;;;;;;16.30;11.10;;;;;;;;;;10140264;28;20057;-66
2022/12/30 14:14:26;;;;;;;14.77;11.73;;;;;;;;;;10130294;28;20134;-65
2022/12/30 14:19:35;;;;;;;17.17;11.85;;;;;;;;;;10133418;28;20082;-66
2022/12/30 14:24:37;;;;;;;11.73;10.63;;;;;;;;;;10130483;28;20042;-65
2022/12/30 14:29:34;;;;;;;11.95;10.85;;;;;;;;;;10125616;28;20039;-66
2022/12/30 14:34:35;;;;;;;12.48;11.35;;;;;;;;;;10117717;28;20043;-66
2022/12/30 14:39:32;;;;;;;12.60;11.40;;;;;;;;;;10110100;28;20058;-66
2022/12/30 14:44:29;;;;;;;11.93;10.82;;;;;;;;;;10128703;28;20046;-66
2022/12/30 14:49:35;;;;;;;14.38;12.20;;;;;;;;;;10156889;28;20070;-66
2022/12/30 14:54:34;;;;;;;12.20;11.10;;;;;;;;;;10130020;28;20046;-66
2022/12/30 14:59:32;;;;;;;12.80;11.60;;;;;;;;;;10143868;28;20043;-66
2022/12/30 15:04:29;;;;;;;12.43;11.00;;;;;;;;;;10128320;28;20137;-66
2022/12/30 15:09:26;;;;;;;13.13;11.70;;;;;;;;;;10140195;28;20542;-66
2022/12/30 15:14:22;;;;;;;12.90;11.70;;;;;;;;;;10124661;28;20125;-66
2022/12/30 15:19:22;;;;;;;13.38;12.00;;;;;;;;;;10115395;28;20141;-66
2022/12/30 15:24:20;;;;;;;12.02;10.82;;;;;;;;;;10126367;28;20053;-66
2022/12/30 15:29:27;;;;;;;12.23;11.27;;;;;;;;;;10130730;28;20137;-66
2022/12/30 15:34:27;;;;;;;12.13;11.00;;;;;;;;;;10108144;28;20551;-66
2022/12/30 15:39:27;;;;;;;12.88;11.65;;;;;;;;;;10114449;28;20054;-67
2022/12/30 15:44:24;;;;;;;13.35;12.15;;;;;;;;;;10125949;28;20501;-67
2022/12/30 15:49:24;;;;;;;13.70;12.40;;;;;;;;;;10154683;28;20043;-67
2022/12/30 15:54:27;;;;;;;12.65;11.55;;;;;;;;;;10127191;28;20069;-67
2022/12/30 15:59:32;;;;;;;13.70;12.38;;;;;;;;;;10134610;28;20045;-67
2022/12/30 16:04:28;;;;;;;13.13;11.60;;;;;;;;;;10098467;28;20052;-66
2022/12/30 16:09:46;;;;;;;12.32;11.02;;;;;;;;;;10128287;28;20051;-67
2022/12/30 16:14:43;;;;;;;12.45;11.15;;;;;;;;;;10126020;28;20046;-66
2022/12/30 16:19:43;;;;;;;14.02;11.30;;;;;;;;;;10114193;28;20137;-67
2022/12/30 16:24:40;;;;;;;12.80;10.93;;;;;;;;;;10113799;28;20098;-67
2022/12/30 16:29:36;;;;;;;14.00;12.38;;;;;;;;;;10114302;28;20039;-67
2022/12/30 16:34:32;;;;;;;13.10;11.35;;;;;;;;;;10116899;28;20050;-67
2022/12/30 16:39:29;;;;;;;13.10;11.70;;;;;;;;;;10113783;28;20484;-67
2022/12/30 16:44:25;;;;;;;12.35;10.98;;;;;;;;;;10115004;28;20116;-67
2022/12/30 16:49:21;;;;;;;11.20;10.20;;;;;;;;;;10113387;28;20047;-67
2022/12/30 16:54:19;;;;;;;12.68;10.85;;;;;;;;;;10122806;28;20469;-67
2022/12/30 16:59:16;;;;;;;11.45;10.23;;;;;;;;;;10152894;28;20138;-67
2022/12/30 17:04:14;;;;;;;12.00;10.00;;;;;;;;;;10134317;28;20042;-66
2022/12/30 17:09:11;;;;;;;11.05;9.90;;;;;;;;;;10159964;28;20074;-67
2022/12/30 17:14:11;;;;;;;17.67;10.18;;;;;;;;;;10129945;28;20053;-67
2022/12/30 17:19:08;;;;;;;10.40;9.35;;;;;;;;;;10124761;28;20134;-67
2022/12/30 17:24:04;;;;;;;11.25;10.05;;;;;;;;;;10129174;28;20502;-67
2022/12/30 17:29:08;;;;;;;11.30;10.30;;;;;;;;;;10126497;28;20076;-67
2022/12/30 17:34:05;;;;;;;11.90;10.90;;;;;;;;;;10119530;28;20134;-67
2022/12/30 17:39:01;;;;;;;12.80;10.18;;;;;;;;;;10120106;28;20043;-67
2022/12/30 17:43:58;;;;;;;10.52;9.15;;;;;;;;;;10126124;28;20133;-67
2022/12/30 17:48:55;;;;;;;10.82;9.77;;;;;;;;;;10159357;28;20133;-67
2022/12/30 17:53:52;;;;;;;12.45;10.00;;;;;;;;;;10133190;28;20092;-67
2022/12/30 17:58:49;;;;;;;10.60;9.55;;;;;;;;;;10159079;28;20050;-67
2022/12/30 18:03:54;;;;;;;12.15;10.82;;;;;;;;;;10131984;28;20042;-67
2022/12/30 18:08:51;;;;;;;11.25;10.10;;;;;;;;;;10147793;28;20413;-67
2022/12/30 18:13:47;;;;;;;11.70;10.70;;;;;;;;;;10124916;28;20053;-67
2022/12/30 18:18:43;;;;;;;12.70;11.68;;;;;;;;;;10147283;28;20123;-67
2022/12/30 18:23:43;;;;;;;12.93;12.02;;;;;;;;;;10123705;28;20145;-67
2022/12/30 18:28:39;;;;;;;14.68;13.30;;;;;;;;;;10127551;28;20071;-67
2022/12/30 18:33:35;;;;;;;15.30;13.85;;;;;;;;;;10122775;28;20054;-67
2022/12/30 18:38:32;;;;;;;13.70;12.70;;;;;;;;;;10123025;28;20126;-67
2022/12/30 18:43:28;;;;;;;15.43;14.25;;;;;;;;;;10119970;28;20141;-67
2022/12/30 18:48:24;;;;;;;19.90;18.38;;;;;;;;;;10116558;28;20061;-66
2022/12/30 18:53:20;;;;;;;23.98;22.17;;;;;;;;;;10116899;28;20047;-67
2022/12/30 18:58:16;;;;;;;27.00;25.45;;;;;;;;;;10116819;28;20135;-67
2022/12/30 19:03:13;;;;;;;30.92;28.83;;;;;;;;;;10117473;28;20421;-66
2022/12/30 19:08:09;;;;;;;35.58;33.35;;;;;;;;;;10126526;28;20122;-67
2022/12/30 19:13:14;;;;;;;35.70;33.38;;;;;;;;;;10080432;28;20055;-67
2022/12/30 19:18:10;;;;;;;40.30;37.88;;;;;;;;;;10143445;28;20047;-67
2022/12/30 19:23:06;;;;;;;44.35;41.75;;;;;;;;;;10110598;28;20143;-67
2022/12/30 19:28:03;;;;;;;43.83;40.80;;;;;;;;;;10128792;28;20138;-67
2022/12/30 19:32:59;;;;;;;47.20;44.20;;;;;;;;;;10116200;28;20047;-67
2022/12/30 19:37:56;;;;;;;49.08;45.80;;;;;;;;;;10125106;28;20690;-67
2022/12/30 19:42:52;;;;;;;47.42;44.45;;;;;;;;;;10116038;28;20039;-67
2022/12/30 19:47:48;;;;;;;47.97;44.67;;;;;;;;;;10096619;28;20046;-67
2022/12/30 19:52:45;;;;;;;47.22;44.00;;;;;;;;;;10115080;28;20058;-67
2022/12/30 19:57:41;;;;;;;47.20;43.65;;;;;;;;;;10152225;28;20073;-67
2022/12/30 20:02:37;;;;;;;49.92;46.42;;;;;;;;;;10142090;28;20047;-67
2022/12/30 20:07:37;;;;;;;50.85;47.28;;;;;;;;;;10144101;28;20109;-67
2022/12/30 20:12:33;;;;;;;47.78;44.42;;;;;;;;;;10114013;28;20570;-67
2022/12/30 20:17:30;;;;;;;47.15;43.42;;;;;;;;;;10149944;28;20504;-67
2022/12/30 20:22:26;;;;;;;46.80;43.30;;;;;;;;;;10138962;28;20547;-67
2022/12/30 20:27:22;;;;;;;48.72;45.17;;;;;;;;;;10148968;28;20042;-67
2022/12/30 20:32:18;;;;;;;49.72;45.90;;;;;;;;;;10122879;28;20501;-67
2022/12/30 20:37:15;;;;;;;47.35;43.85;;;;;;;;;;10143476;28;20047;-67
2022/12/30 20:42:11;;;;;;;46.53;43.03;;;;;;;;;;10114109;28;20167;-68
2022/12/30 20:47:07;;;;;;;46.65;43.00;;;;;;;;;;10120843;28;20102;-67
2022/12/30 20:52:03;;;;;;;49.70;45.97;;;;;;;;;;10113649;28;20065;-67
2022/12/30 20:57:00;;;;;;;47.65;44.05;;;;;;;;;;10121273;28;20047;-67
2022/12/30 21:01:56;;;;;;;48.90;45.10;;;;;;;;;;10113669;28;20059;-67
2022/12/30 21:06:53;;;;;;;49.03;44.92;;;;;;;;;;10143745;28;20047;-67
2022/12/30 21:11:49;;;;;;;48.88;45.17;;;;;;;;;;10135744;28;20174;-67
2022/12/30 21:16:46;;;;;;;50.58;46.78;;;;;;;;;;10142759;28;20244;-67
2022/12/30 21:21:43;;;;;;;50.67;46.78;;;;;;;;;;10119935;28;20488;-67
2022/12/30 21:26:39;;;;;;;47.28;43.67;;;;;;;;;;10140587;28;20046;-67
2022/12/30 21:31:37;;;;;;;51.47;47.53;;;;;;;;;;10112462;28;20047;-67
2022/12/30 21:36:33;;;;;;;52.05;48.05;;;;;;;;;;10129346;28;20047;-67
2022/12/30 22:02:46;;;;;;;56.95;52.53;;;;;;;;;;10153766;28;20051;-67
2022/12/30 22:07:45;;;;;;;56.40;52.20;;;;;;;;;;10145705;28;20398;-67
2022/12/30 22:12:42;;;;;;;57.00;52.90;;;;;;;;;;10117984;28;20520;-67
2022/12/30 22:17:39;;;;;;;56.13;51.83;;;;;;;;;;10156007;28;20508;-67
2022/12/30 22:22:49;;;;;;;58.05;53.92;;;;;;;;;;10136779;28;20049;-67
2022/12/30 22:27:45;;;;;;;54.08;50.28;;;;;;;;;;10156295;28;20428;-67
2022/12/30 22:32:43;;;;;;;53.75;49.95;;;;;;;;;;10130323;28;20050;-67
2022/12/30 22:37:44;;;;;;;54.58;50.78;;;;;;;;;;10155749;28;20050;-67
2022/12/30 22:42:40;;;;;;;56.38;52.22;;;;;;;;;;10126563;28;20130;-67
2022/12/30 22:47:37;;;;;;;55.50;51.40;;;;;;;;;;10154162;28;20058;-67
2022/12/30 22:52:33;;;;;;;53.83;49.88;;;;;;;;;;10123761;28;20138;-67
2022/12/30 22:57:29;;;;;;;51.40;47.70;;;;;;;;;;10149376;28;20086;-67
2022/12/30 23:02:26;;;;;;;54.20;50.53;;;;;;;;;;10116903;28;20129;-67
2022/12/30 23:07:22;;;;;;;56.60;52.72;;;;;;;;;;10151211;28;20042;-67
2022/12/30 23:17:33;;;;;;;54.85;51.22;;;;;;;;;;10119527;28;20043;-67
2022/12/30 23:27:44;;;;;;;55.13;51.38;;;;;;;;;;10153706;28;20049;-67
2022/12/30 23:32:40;;;;;;;53.03;49.42;;;;;;;;;;10143379;28;20156;-67
2022/12/30 23:37:37;;;;;;;55.00;51.30;;;;;;;;;;10152883;28;20054;-67
2022/12/30 23:42:34;;;;;;;53.90;50.30;;;;;;;;;;10124196;28;20420;-67
2022/12/30 23:47:31;;;;;;;56.20;52.40;;;;;;;;;;10111232;28;20126;-67
2022/12/30 23:52:27;;;;;;;53.10;49.40;;;;;;;;;;10114871;28;20082;-67
2022/12/30 23:57:23;;;;;;;56.28;52.58;;;;;;;;;;10115259;28;20134;-67
